Terminal Aerodrome Forecast
Issued by NWS Wilmington, OH

Home | Current Version | Previous Version | Text Only | Print | Product List | Glossary On
Versions: 1 2 3 4 5 6 7 8 9 10 11 12 13 14 15 16 17 18 19 20 21 22 23 24 25 26 27 28
000
FTUS41 KILN 291734
TAFCVG
TAF
KCVG 291734Z 2918/3024 24006KT P6SM SCT040 BKN200
     FM291900 27007KT P6SM VCTS SCT040CB BKN200
     FM292300 30006KT P6SM SCT120
     FM300600 34007KT P6SM SCT020
     FM301300 31007KT P6SM FEW030=

USA.gov is the U.S. government's official web portal to all federal, state and local government web resources and services.